createdAt,value
2018-05-02T00:00:02.953Z,7.3
2018-05-02T00:05:08.252Z,7.1
2018-05-02T00:10:05.477Z,7.1
2018-05-02T00:15:03.269Z,7.1
2018-05-02T00:20:05.095Z,7.1
2018-05-02T00:25:05.393Z,7
2018-05-02T00:30:02.566Z,7
2018-05-02T00:35:05.383Z,6.9
2018-05-02T00:40:08.199Z,6.8
2018-05-02T00:45:09.987Z,6.7
2018-05-02T00:50:02.323Z,6.7
2018-05-02T00:55:02.576Z,6.7
2018-05-02T01:00:02.816Z,6.6
2018-05-02T01:05:13.240Z,6.5
2018-05-02T01:10:05.451Z,6.4
2018-05-02T01:15:08.235Z,6.3
2018-05-02T01:20:02.531Z,6.3
2018-05-02T01:25:07.834Z,6.1
2018-05-02T01:30:03.260Z,6.1
2018-05-02T01:35:02.562Z,6.1
2018-05-02T01:40:03.321Z,6.1
2018-05-02T01:45:05.076Z,6
2018-05-02T01:50:03.313Z,5.9
2018-05-02T01:55:02.581Z,5.9
2018-05-02T02:00:02.855Z,5.9
2018-05-02T02:05:05.651Z,5.7
2018-05-02T02:10:03.360Z,5.7
2018-05-02T02:15:05.052Z,5.6
2018-05-02T02:20:02.350Z,5.6
2018-05-02T02:25:05.127Z,5.5
2018-05-02T02:30:07.452Z,5.4
2018-05-02T02:35:02.721Z,5.4
2018-05-02T02:40:02.441Z,5.4
2018-05-02T02:45:02.697Z,5.4
2018-05-02T02:50:05.583Z,5.3
2018-05-02T02:55:03.159Z,5.3
2018-05-02T03:00:02.408Z,5.3
2018-05-02T03:05:02.685Z,5.2
2018-05-02T03:10:09.992Z,5.1
2018-05-02T03:15:02.709Z,5.1
2018-05-02T03:20:03.056Z,5.1
2018-05-02T03:25:03.315Z,5.1
2018-05-02T03:30:02.579Z,5.1
2018-05-02T03:35:02.924Z,5.1
2018-05-02T03:40:05.166Z,5
2018-05-02T03:45:15.520Z,5
2018-05-02T03:50:07.841Z,5
2018-05-02T03:55:15.740Z,5
2018-05-02T04:00:02.994Z,5
2018-05-02T04:05:07.465Z,5.1
2018-05-02T04:10:13.332Z,5.1
2018-05-02T04:15:07.438Z,5.2
2018-05-02T04:20:02.774Z,5.2
2018-05-02T04:25:08.117Z,5.3
2018-05-02T04:30:02.348Z,5.3
2018-05-02T04:35:02.726Z,5.3
2018-05-02T04:40:04.930Z,5.4
2018-05-02T04:45:05.157Z,5.5
2018-05-02T04:50:02.404Z,5.5
2018-05-02T04:55:02.650Z,5.6
2018-05-02T05:00:02.927Z,5.7
2018-05-02T05:05:03.300Z,5.8
2018-05-02T05:10:10.581Z,6.1
2018-05-02T05:15:02.421Z,6.1
2018-05-02T05:20:05.309Z,6.5
2018-05-02T05:25:05.591Z,6.7
2018-05-02T05:30:03.061Z,6.7
2018-05-02T05:35:03.301Z,7
2018-05-02T05:40:02.963Z,7.2
2018-05-02T05:45:04.880Z,7.7
2018-05-02T05:50:10.767Z,7.9
2018-05-02T05:55:05.192Z,8.2
2018-05-02T06:00:04.969Z,8.4
2018-05-02T06:05:07.876Z,8.6
2018-05-02T06:10:02.731Z,8.6
2018-05-02T06:15:03.012Z,8.9
2018-05-02T06:20:02.353Z,9
2018-05-02T06:25:02.663Z,9.2
2018-05-02T06:30:07.563Z,9.6
2018-05-02T06:35:07.779Z,9.8
2018-05-02T06:40:07.576Z,10
2018-05-02T06:45:07.781Z,10.2
2018-05-02T06:50:03.031Z,10.2
2018-05-02T06:55:02.476Z,10.4
2018-05-02T07:00:02.738Z,10.6
2018-05-02T07:05:03.084Z,10.8
2018-05-02T07:10:07.782Z,11.3
2018-05-02T07:15:03.101Z,11.2
2018-05-02T07:20:07.514Z,11.7
2018-05-02T07:25:02.744Z,11.8
2018-05-02T07:30:03.045Z,12.1
2018-05-02T07:35:02.343Z,12.2
2018-05-02T07:40:03.114Z,12.4
2018-05-02T07:45:02.462Z,12.6
2018-05-02T07:50:05.263Z,12.8
2018-05-02T07:55:05.673Z,13
2018-05-02T08:00:03.046Z,13
2018-05-02T08:05:07.432Z,13.5
2018-05-02T08:10:05.744Z,13.7
2018-05-02T08:15:02.588Z,13.7
2018-05-02T08:20:10.579Z,13.7
2018-05-02T08:25:02.327Z,13.7
2018-05-02T08:30:02.656Z,13.9
2018-05-02T08:35:02.980Z,14.2
2018-05-02T08:40:05.261Z,14.6
2018-05-02T08:45:03.084Z,14.6
2018-05-02T08:50:02.387Z,14.8
2018-05-02T08:55:05.309Z,14.9
2018-05-02T09:00:05.170Z,15
2018-05-02T09:05:03.003Z,15
2018-05-02T09:10:05.259Z,15.3
2018-05-02T09:15:10.699Z,15.3
2018-05-02T09:20:03.052Z,15.3
2018-05-02T09:25:07.446Z,15.2
2018-05-02T09:30:07.829Z,15.2
2018-05-02T09:35:03.084Z,15.2
2018-05-02T09:40:02.811Z,15.1
2018-05-02T09:45:03.145Z,15
2018-05-02T09:50:04.953Z,14.8
2018-05-02T09:55:02.739Z,14.8
2018-05-02T10:00:03.174Z,14.8
2018-05-02T10:05:02.480Z,14.8
2018-05-02T10:10:05.846Z,14.9
2018-05-02T10:15:05.161Z,15
2018-05-02T10:20:05.422Z,15.1
2018-05-02T10:25:03.259Z,15.1
2018-05-02T10:30:05.644Z,15.1
2018-05-02T10:35:04.886Z,15.2
2018-05-02T10:40:02.647Z,15.2
2018-05-02T10:45:10.565Z,15.1
2018-05-02T10:50:05.434Z,15
2018-05-02T10:55:03.249Z,15
2018-05-02T11:00:02.577Z,15.3
2018-05-02T11:05:02.922Z,15.6
2018-05-02T11:10:02.711Z,15.9
2018-05-02T11:15:03.082Z,15.8
2018-05-02T11:20:02.557Z,16
2018-05-02T11:25:02.910Z,16.2
2018-05-02T11:30:03.272Z,15.9
2018-05-02T11:35:02.664Z,15.9
2018-05-02T11:40:10.038Z,15.9
2018-05-02T11:45:07.845Z,15.8
2018-05-02T11:50:03.286Z,15.8
2018-05-02T11:55:05.143Z,15.5
2018-05-02T12:00:02.405Z,15.5
2018-05-02T12:05:02.726Z,15.3
2018-05-02T12:10:07.568Z,15.1
2018-05-02T12:15:12.963Z,15
2018-05-02T12:20:04.880Z,14.9
2018-05-02T12:25:10.325Z,14.8
2018-05-02T12:30:07.659Z,14.7
2018-05-02T12:35:05.542Z,14.7
2018-05-02T12:40:05.859Z,14.7
2018-05-02T12:45:02.618Z,14.7
2018-05-02T12:50:05.480Z,14.7
2018-05-02T12:55:05.726Z,14.7
2018-05-02T13:00:05.021Z,14.7
2018-05-02T13:05:05.401Z,14.7
2018-05-02T13:10:08.178Z,14.9
2018-05-02T13:15:12.678Z,14.9
2018-05-02T13:20:05.584Z,15
2018-05-02T13:25:05.205Z,15.1
2018-05-02T13:30:02.496Z,15.1
2018-05-02T13:35:02.786Z,15.3
2018-05-02T13:40:05.038Z,15.8
2018-05-02T13:45:05.525Z,16.1
2018-05-02T13:50:07.931Z,16.9
2018-05-02T13:55:08.373Z,18
2018-05-02T14:00:05.164Z,18.8
2018-05-02T14:05:05.522Z,19.4
2018-05-02T14:10:07.599Z,19
2018-05-02T14:15:02.855Z,19
2018-05-02T14:20:03.258Z,19
2018-05-02T14:25:02.614Z,18.9
2018-05-02T14:30:10.543Z,18.1
2018-05-02T14:35:03.296Z,18.1
2018-05-02T14:40:08.147Z,17.5
2018-05-02T14:45:04.943Z,17.8
2018-05-02T14:50:05.767Z,18.1
2018-05-02T14:55:02.547Z,18.1
2018-05-02T15:00:05.388Z,17.9
2018-05-02T15:05:04.896Z,17.7
2018-05-02T15:10:02.900Z,17.7
2018-05-02T15:15:02.336Z,17.2
2018-05-02T15:20:02.749Z,16.8
2018-05-02T15:25:03.183Z,16.9
2018-05-02T15:30:02.446Z,17
2018-05-02T15:35:02.788Z,17.1
2018-05-02T15:40:12.697Z,16.8
2018-05-02T15:45:05.630Z,16.8
2018-05-02T15:50:05.420Z,16.9
2018-05-02T15:55:04.898Z,16.9
2018-05-02T16:00:04.951Z,17
2018-05-02T16:05:20.545Z,16.8
2018-05-02T16:10:02.339Z,16.8
2018-05-02T16:15:05.205Z,16.5
2018-05-02T16:20:02.691Z,16.5
2018-05-02T16:25:03.051Z,16.4
2018-05-02T16:30:02.685Z,16.4
2018-05-02T16:35:03.023Z,16.3
2018-05-02T16:40:07.767Z,16.1
2018-05-02T16:45:05.653Z,16
2018-05-02T16:50:02.450Z,16
2018-05-02T16:55:12.830Z,15.9
2018-05-02T17:00:03.136Z,15.9
2018-05-02T17:05:07.804Z,15.8
2018-05-02T17:10:02.566Z,15.8
2018-05-02T17:15:03.005Z,15.7
2018-05-02T17:20:02.456Z,15.7
2018-05-02T17:25:02.898Z,15.7
2018-05-02T17:30:03.234Z,15.6
2018-05-02T17:35:05.098Z,15.6
2018-05-02T17:40:20.521Z,15.5
2018-05-02T17:45:05.685Z,15.4
2018-05-02T17:50:05.539Z,15.3
2018-05-02T17:55:02.539Z,15.3
2018-05-02T18:00:05.345Z,15.2
2018-05-02T18:05:08.134Z,15.1
2018-05-02T18:10:05.336Z,15
2018-05-02T18:15:03.193Z,15
2018-05-02T18:20:02.484Z,15
2018-05-02T18:25:12.959Z,14.9
2018-05-02T18:30:05.725Z,14.8
2018-05-02T18:35:02.666Z,14.8
2018-05-02T18:40:02.541Z,14.8
2018-05-02T18:45:05.504Z,14.7
2018-05-02T18:50:02.775Z,14.7
2018-05-02T18:55:05.653Z,14.6
2018-05-02T19:00:05.459Z,14.5
2018-05-02T19:05:13.350Z,14.5
2018-05-02T19:10:05.654Z,14.4
2018-05-02T19:15:05.201Z,14.4
2018-05-02T19:20:02.514Z,14.4
2018-05-02T19:25:02.858Z,14.3
2018-05-02T19:30:10.736Z,14.3
2018-05-02T19:35:07.521Z,14.3
2018-05-02T19:40:03.287Z,14.2
2018-05-02T19:45:07.752Z,14.2
2018-05-02T19:50:05.546Z,14.2
2018-05-02T19:55:03.333Z,14.2
2018-05-02T20:00:05.253Z,14.1
2018-05-02T20:05:02.946Z,14.1
2018-05-02T20:10:07.839Z,14.1
2018-05-02T20:15:03.050Z,14.1
2018-05-02T20:20:04.924Z,14
2018-05-02T20:25:02.735Z,14
2018-05-02T20:30:05.548Z,13.9
2018-05-02T20:35:02.317Z,13.9
2018-05-02T20:40:10.591Z,13.9
2018-05-02T20:45:02.355Z,13.9
2018-05-02T20:50:05.168Z,13.8
2018-05-02T20:55:08.262Z,13.7
2018-05-02T21:00:02.953Z,13.7
2018-05-02T21:05:03.256Z,13.7
2018-05-02T21:10:02.945Z,13.7
2018-05-02T21:15:03.266Z,13.6
2018-05-02T21:20:02.565Z,13.6
2018-05-02T21:25:02.892Z,13.5
2018-05-02T21:30:03.147Z,13.4
2018-05-02T21:35:05.033Z,13.2
2018-05-02T21:40:02.729Z,13.3
2018-05-02T21:45:08.112Z,13.2
2018-05-02T21:50:02.383Z,13.2
2018-05-02T21:55:05.514Z,13.1
2018-05-02T22:00:02.775Z,13
2018-05-02T22:05:18.335Z,12.8
2018-05-02T22:10:03.043Z,12.8
2018-05-02T22:15:09.998Z,12.6
2018-05-02T22:20:03.328Z,12.6
2018-05-02T22:25:02.625Z,12.6
2018-05-02T22:30:02.882Z,12.6
2018-05-02T22:35:03.205Z,12.6
2018-05-02T22:40:02.902Z,12.6
2018-05-02T22:45:03.203Z,12.6
2018-05-02T22:50:15.158Z,12.5
2018-05-02T22:55:02.752Z,12.5
2018-05-02T23:00:03.067Z,12.5
2018-05-02T23:05:03.261Z,12.5
2018-05-02T23:10:02.955Z,12.5
2018-05-02T23:15:05.798Z,12.5
2018-05-02T23:20:05.797Z,12.5
2018-05-02T23:25:02.578Z,12.5
2018-05-02T23:30:05.409Z,12.5
2018-05-02T23:35:08.293Z,12.5
2018-05-02T23:40:13.152Z,12.5
2018-05-02T23:45:02.314Z,12.5
2018-05-02T23:50:07.684Z,12.5
2018-05-02T23:55:05.444Z,12.5
